Aldie, VA (20105)

4:42 PM EST on January 27, 2015 (GMT -0500)
Kirkpatrick Farms | Change Station
CLOSE
Current Station
Personal Weather Station
Location: Aldie, VA
Elevation: 302 ft
Nearby Weather Stations

Elev 302 ft 38.91 °N, 77.56 °W | Updated 11 minutes ago

Overcast
Overcast
31.1 °F
Feels Like 26 °F
N
5.4
Wind Variable Wind from NW
Gusts 6.0 mph

Today
High -- | Low -- °F
--% Chance of Precip.
Yesterday
High -- | Low -- °F
Precip. -- in
7:21 AM 5:25 PM
First Quarter, 58% visible
Pressure 29.85 in
Visibility 10.0 miles
Clouds Mostly Cloudy 2600 ft
Mostly Cloudy 6000 ft
Mostly Cloudy 16000 ft
Windchill 26 °F
Dew Point 26 °F
Humidity 80%
Rainfall 0.00 in
Snow Depth Not available.
UV 0 out of 12
Pollen .10 out of 12
Air Quality Not available.
Flu Activity Not available.
SPECI KIAD 272136Z 32013KT 10SM BKN026 BKN060 BKN160 M01/M06 A2985 RMK AO2

More Conditions Fewer Conditions

Pressure 29.85 in
Visibility 10.0 miles
Clouds Mostly Cloudy 2600 ft
Mostly Cloudy 6000 ft
Mostly Cloudy 16000 ft
Windchill 26 °F
Dew Point 26 °F
Humidity 80%
Rainfall 0.00 in
Snow Depth Not available.
UV 0 out of 12
Pollen .10 out of 12
Air Quality Not available.
Flu Activity Not available.
SPECI KIAD 272136Z 32013KT 10SM BKN026 BKN060 BKN160 M01/M06 A2985 RMK AO2

More Conditions Fewer Conditions

10-Day Weather Forecast

Almanac

Astronomy

Jan. 27, 2015 Rise Set
Actual Time
Civil Twilight
Nautical Twilight
Astronomical Twilight
Moon
Length of Visible Light
Length of Day
Tomorrow will be .
, % of the Moon is Illuminated

Today's Extremes

State Highs State Lows

Community

WunderPhotos

Upload Photos

1,790,920 photos uploaded!

WunderBlogs® & News

Nearby

Air Quality

  Air Quality AQ Index Pollutant
Not available.

Snow Depth

Station Depth Elevation

Earthquake Activity

City Distance Mag. Time & Date
Minimum magnitude displayed is 2.5.

Coastal Water Temperatures

Place Temperature

Nearby Weather Stations